Time;durP1;ratioP1;P1;durP2;ratioP2;P2;SDS_P1;SDS_P2;PMS_P1;PMS_P2;Temp;Humidity;BMP_temperature;BMP_pressure;BME280_temperature;BME280_humidity;BME280_pressure;Samples;Min_cycle;Max_cycle;Signal;HPM_P1;HPM_P2
2022/02/11 00:02:15;;;;;;;7.10;5.60;;;;;;;5.80;84.28;100447.46;88207;1274;86995;-58
2022/02/11 00:04:51;;;;;;;7.10;5.40;;;;;;;5.82;84.33;100449.63;88196;1274;93269;-75
2022/02/11 00:07:06;;;;;;;8.10;5.50;;;;;;;5.80;84.24;100446.60;88201;1274;78643;-75
2022/02/11 00:09:13;;;;;;;7.80;5.30;;;;;;;5.73;84.09;100451.27;88185;1276;82888;-57
2022/02/11 00:11:34;;;;;;;7.30;4.70;;;;;;;5.67;84.10;100453.64;88175;1274;97458;-58
2022/02/11 00:14:00;;;;;;;5.20;3.70;;;;;;;5.58;84.18;100468.38;88097;1277;88414;-74
2022/02/11 00:16:25;;;;;;;7.30;4.30;;;;;;;5.55;84.05;100470.27;88138;1276;94761;-75
2022/02/11 00:18:45;;;;;;;5.10;3.30;;;;;;;5.53;83.80;100479.16;88111;1276;81931;-74
2022/02/11 00:20:54;;;;;;;4.70;3.50;;;;;;;5.50;84.07;100482.05;88177;1276;83316;-74
2022/02/11 00:23:06;;;;;;;7.10;4.30;;;;;;;5.50;83.96;100487.20;88204;1276;97926;-75
2022/02/11 00:25:12;;;;;;;6.70;4.10;;;;;;;5.54;83.93;100492.56;88181;1276;87785;-75
2022/02/11 00:27:57;;;;;;;5.00;3.50;;;;;;;5.57;83.77;100488.77;88150;1276;95639;-76
2022/02/11 00:32:42;;;;;;;5.20;4.30;;;;;;;5.49;83.69;100494.80;88045;1276;81830;-58
2022/02/11 00:34:58;;;;;;;4.50;3.50;;;;;;;5.45;83.76;100494.85;88188;1276;98020;-76
2022/02/11 00:37:10;;;;;;;6.40;3.80;;;;;;;5.40;83.72;100498.64;88210;1274;85907;-75
2022/02/11 00:39:52;;;;;;;5.60;3.80;;;;;;;5.37;83.80;100498.68;88159;1276;95582;-59
2022/02/11 01:03:25;;;;;;;5.20;3.20;;;;;;;5.18;83.53;100521.96;88207;1274;87247;-75
2022/02/11 01:05:48;;;;;;;4.60;2.80;;;;;;;5.24;83.74;100512.71;88179;1274;94685;-58
2022/02/11 01:08:08;;;;;;;5.50;2.80;;;;;;;5.27;83.80;100511.46;88040;1278;81365;-58
2022/02/11 01:10:24;;;;;;;4.90;2.80;;;;;;;5.26;83.81;100511.03;88021;1278;81227;-58
2022/02/11 01:12:50;;;;;;;4.80;3.00;;;;;;;5.27;83.93;100509.15;88086;1276;100074;-58
2022/02/11 01:15:04;;;;;;;5.30;3.30;;;;;;;5.30;83.62;100511.17;88063;1278;88452;-76
2022/02/11 01:17:29;;;;;;;6.40;3.50;;;;;;;5.31;83.56;100509.84;88073;1276;94163;-75
2022/02/11 01:19:55;;;;;;;4.10;2.90;;;;;;;5.28;83.65;100506.05;88148;1276;79597;-75
2022/02/11 01:22:14;;;;;;;4.80;2.80;;;;;;;5.22;83.55;100505.67;88204;1275;80619;-76
2022/02/11 01:24:40;;;;;;;4.70;3.10;;;;;;;5.20;83.61;100502.83;88186;1275;98642;-76
2022/02/11 01:26:54;;;;;;;4.50;3.00;;;;;;;5.20;83.46;100507.33;88178;1274;87116;-76
2022/02/11 01:29:27;;;;;;;;;;;;;;;5.22;83.53;100504.99;88212;1274;95103;-76
2022/02/11 01:31:50;;;;;;;5.40;3.30;;;;;;;5.21;83.27;100502.07;88190;1275;80407;-75
2022/02/11 01:34:22;;;;;;;4.70;2.80;;;;;;;5.24;83.42;100507.80;88186;1276;82274;-76
2022/02/11 01:39:11;;;;;;;7.50;3.60;;;;;;;5.26;83.37;100509.75;88172;1276;87524;-58
2022/02/11 01:44:10;;;;;;;5.00;3.30;;;;;;;5.25;83.43;100504.92;88166;1276;80829;-74
2022/02/11 01:49:27;;;;;;;5.00;3.70;;;;;;;5.12;83.38;100500.71;87999;1279;97589;-74
2022/02/11 01:51:40;;;;;;;6.30;4.30;;;;;;;5.04;83.27;100505.61;88018;1279;89209;-75
2022/02/11 01:53:51;;;;;;;;;;;;;;;4.97;83.14;100507.38;88011;1279;95007;-57
2022/02/11 02:03:41;;;;;;;7.50;4.20;;;;;;;4.88;83.37;100510.09;88149;1276;88940;-59
2022/02/11 02:06:22;;;;;;;7.20;4.10;;;;;;;4.91;83.38;100507.75;88184;1274;94522;-58
2022/02/11 02:09:10;;;;;;;8.20;4.60;;;;;;;4.94;83.44;100510.02;88147;1276;78988;-57
2022/02/11 02:11:40;;;;;;;6.00;4.20;;;;;;;4.97;83.33;100510.63;88123;1275;81004;-59
2022/02/11 02:21:56;;;;;;;7.80;5.10;;;;;;;4.70;83.29;100513.39;88118;1276;80386;-76
2022/02/11 02:24:19;;;;;;;7.20;4.60;;;;;;;4.66;83.23;100512.36;88126;1276;80220;-74
2022/02/11 02:26:40;;;;;;;6.00;4.00;;;;;;;4.65;83.25;100513.19;88173;1276;98501;-74
2022/02/11 02:38:51;;;;;;;8.70;5.20;;;;;;;4.58;83.48;100515.68;87473;1285;98274;-74
2022/02/11 02:56:35;;;;;;;5.30;3.80;;;;;;;4.25;83.27;100527.81;88113;1276;97956;-75
2022/02/11 02:58:13;;;;;;;8.40;5.60;;;;;;;4.10;83.44;100537.89;88169;1274;78993;-59
2022/02/11 03:00:56;;;;;;;7.10;4.80;;;;;;;4.12;83.45;100536.89;88190;1274;82987;-58
2022/02/11 03:34:55;;;;;;;8.90;5.90;;;;;;;3.63;83.89;100545.27;87647;1281;382757;-69
2022/02/11 03:49:12;;;;;;;8.20;5.60;;;;;;;3.57;84.31;100550.24;87906;1281;80688;-76
2022/02/11 03:51:36;;;;;;;9.30;6.60;;;;;;;3.60;84.30;100552.13;87869;1281;98116;-75
2022/02/11 03:54:13;;;;;;;13.60;7.90;;;;;;;3.59;84.28;100548.27;87890;1281;88725;-74
2022/02/11 03:56:59;;;;;;;10.80;7.50;;;;;;;3.64;84.34;100549.95;87893;1281;94983;-75
2022/02/11 04:21:32;;;;;;;12.10;7.40;;;;;;;3.70;84.44;100551.24;87885;1281;94328;-74
2022/02/11 04:55:21;;;;;;;8.70;5.50;;;;;;;3.50;84.52;100547.52;88044;1276;87319;-62
2022/02/11 04:59:50;;;;;;;9.80;5.50;;;;;;;3.41;84.30;100549.10;88090;1276;80145;-75
2022/02/11 05:01:56;;;;;;;9.80;5.60;;;;;;;3.34;84.33;100549.05;88136;1276;81360;-76
2022/02/11 05:04:02;;;;;;;7.60;4.60;;;;;;;3.27;84.23;100553.42;88114;1276;99448;-57
2022/02/11 05:06:12;;;;;;;7.50;4.80;;;;;;;3.17;84.21;100555.44;88092;1276;89175;-57
2022/02/11 05:08:23;;;;;;;10.80;5.70;;;;;;;3.06;84.26;100559.77;88122;1276;93904;-58
2022/02/11 05:10:32;;;;;;;9.20;5.20;;;;;;;2.99;84.03;100560.57;88102;1276;79239;-58
2022/02/11 05:12:38;;;;;;;9.60;5.20;;;;;;;2.91;84.41;100568.55;88150;1276;81073;-58
2022/02/11 05:14:45;;;;;;;10.50;5.60;;;;;;;2.84;84.52;100569.73;88119;1276;98040;-75
2022/02/11 05:16:51;;;;;;;10.00;6.30;;;;;;;2.78;84.27;100578.09;88128;1276;88693;-75
2022/02/11 05:19:00;;;;;;;9.30;5.70;;;;;;;2.69;84.28;100578.42;88128;1276;94426;-75
2022/02/11 05:21:05;;;;;;;9.50;5.70;;;;;;;2.61;84.43;100579.79;88123;1276;77752;-75
2022/02/11 05:23:17;;;;;;;12.00;6.20;;;;;;;2.51;84.22;100573.02;88116;1276;82509;-75
2022/02/11 05:25:23;;;;;;;9.10;5.30;;;;;;;2.39;84.34;100575.66;88120;1276;97386;-58
2022/02/11 05:27:29;;;;;;;9.10;5.50;;;;;;;2.29;84.19;100581.16;88098;1276;85651;-57
2022/02/11 05:29:35;;;;;;;9.20;5.20;;;;;;;2.20;84.14;100582.67;88130;1276;95347;-57
2022/02/11 05:31:41;;;;;;;7.20;5.30;;;;;;;2.11;84.19;100583.48;88111;1276;79895;-57
2022/02/11 05:33:50;;;;;;;9.70;5.20;;;;;;;2.07;84.24;100578.27;88112;1276;81943;-57
2022/02/11 05:35:56;;;;;;;9.70;5.60;;;;;;;2.07;84.30;100575.30;88113;1276;98291;-58
2022/02/11 05:38:02;;;;;;;9.50;5.10;;;;;;;2.05;84.48;100573.31;88129;1276;87268;-57
2022/02/11 05:40:14;;;;;;;9.20;5.70;;;;;;;2.06;84.66;100572.33;88108;1276;94826;-57
2022/02/11 05:42:22;;;;;;;10.30;5.90;;;;;;;2.08;84.93;100570.38;88116;1276;77928;-57
2022/02/11 05:44:31;;;;;;;8.60;5.50;;;;;;;2.14;84.91;100575.52;88080;1276;80589;-57
2022/02/11 05:46:38;;;;;;;9.80;6.10;;;;;;;2.15;84.86;100572.24;88112;1276;98190;-57
2022/02/11 05:48:45;;;;;;;10.10;5.60;;;;;;;2.12;85.00;100577.70;88115;1276;89675;-74
2022/02/11 05:50:54;;;;;;;10.50;5.40;;;;;;;2.12;84.98;100578.80;88126;1276;93029;-74
2022/02/11 05:53:00;;;;;;;10.10;7.10;;;;;;;2.08;84.97;100582.29;88109;1276;79314;-74
2022/02/11 05:55:10;;;;;;;9.00;5.60;;;;;;;2.07;85.17;100586.48;88130;1276;80955;-57
2022/02/11 05:57:16;;;;;;;8.10;5.00;;;;;;;2.11;85.30;100588.59;88115;1276;99084;-57
2022/02/11 05:59:26;;;;;;;8.20;5.30;;;;;;;2.17;85.39;100589.02;88129;1276;88314;-75
2022/02/11 06:01:31;;;;;;;9.40;5.60;;;;;;;2.26;85.58;100586.46;88135;1276;93435;-74
2022/02/11 06:03:38;;;;;;;9.40;5.20;;;;;;;2.31;85.77;100589.52;88131;1276;78284;-58
2022/02/11 06:05:43;;;;;;;6.50;5.20;;;;;;;2.33;85.72;100591.70;88141;1276;83009;-58
2022/02/11 06:07:52;;;;;;;10.80;5.70;;;;;;;2.37;85.96;100597.39;88122;1276;99181;-58
2022/02/11 06:09:58;;;;;;;8.90;6.20;;;;;;;2.40;86.09;100596.39;88145;1276;87044;-58
2022/02/11 06:12:09;;;;;;;9.30;6.20;;;;;;;2.46;86.21;100595.39;88105;1276;96651;-60
2022/02/11 06:14:17;;;;;;;11.60;6.20;;;;;;;2.50;86.18;100593.59;88120;1276;80362;-58
2022/02/11 06:16:26;;;;;;;7.80;5.40;;;;;;;2.48;86.09;100590.04;88127;1276;83373;-57
2022/02/11 06:18:33;;;;;;;10.50;5.70;;;;;;;2.49;86.11;100593.33;88131;1276;99303;-59
2022/02/11 06:20:45;;;;;;;7.00;5.60;;;;;;;2.54;86.21;100590.26;88127;1276;87130;-76
2022/02/11 06:22:54;;;;;;;7.40;5.10;;;;;;;2.59;86.27;100584.45;88149;1276;94715;-74
2022/02/11 06:25:03;;;;;;;9.40;6.00;;;;;;;2.68;86.34;100583.45;88118;1276;79026;-75
2022/02/11 06:27:12;;;;;;;7.40;5.30;;;;;;;2.73;86.24;100586.16;88119;1276;82145;-74
2022/02/11 06:29:29;;;;;;;7.80;5.30;;;;;;;2.77;86.27;100589.06;88132;1276;99638;-57
2022/02/11 06:31:36;;;;;;;8.70;5.60;;;;;;;2.82;86.32;100591.55;88123;1276;87529;-57
2022/02/11 06:33:44;;;;;;;9.30;6.00;;;;;;;2.87;86.33;100589.90;88115;1276;94930;-58
2022/02/11 06:35:54;;;;;;;10.90;6.10;;;;;;;2.94;86.27;100588.40;88128;1276;77092;-58
2022/02/11 06:37:59;;;;;;;9.20;5.60;;;;;;;2.96;86.43;100590.73;88150;1276;80775;-58
2022/02/11 06:40:08;;;;;;;9.70;6.50;;;;;;;2.99;86.73;100586.48;88130;1276;98878;-58
2022/02/11 06:42:16;;;;;;;9.60;6.10;;;;;;;3.02;86.51;100593.92;88143;1275;87641;-58
2022/02/11 06:44:25;;;;;;;9.50;6.40;;;;;;;3.03;86.27;100592.66;88139;1276;93935;-76
2022/02/11 06:46:30;;;;;;;8.80;4.90;;;;;;;3.05;86.26;100594.94;88118;1276;79088;-76
2022/02/11 06:48:36;;;;;;;8.70;5.20;;;;;;;3.10;86.39;100591.95;88065;1278;82205;-58
2022/02/11 06:50:41;;;;;;;10.00;5.10;;;;;;;3.17;86.57;100590.22;88097;1276;99529;-57
2022/02/11 06:52:49;;;;;;;7.40;4.70;;;;;;;3.28;86.93;100590.89;88109;1276;88577;-58
2022/02/11 06:54:57;;;;;;;8.80;4.80;;;;;;;3.38;86.91;100588.65;88100;1276;93294;-58
2022/02/11 06:57:07;;;;;;;9.00;5.00;;;;;;;3.46;87.05;100591.50;88091;1276;80427;-58
2022/02/11 06:59:15;;;;;;;9.50;5.90;;;;;;;3.54;86.89;100594.90;88152;1276;80222;-76
2022/02/11 07:01:22;;;;;;;8.70;5.40;;;;;;;3.63;86.95;100597.99;88132;1276;97910;-76
2022/02/11 07:03:31;;;;;;;9.40;6.10;;;;;;;3.67;86.83;100603.46;88128;1276;88690;-77
2022/02/11 07:05:38;;;;;;;7.50;5.90;;;;;;;3.67;87.02;100607.17;88134;1276;95276;-76
2022/02/11 07:07:44;;;;;;;8.10;5.70;;;;;;;3.72;86.92;100608.91;88103;1276;79654;-76
2022/02/11 07:09:52;;;;;;;9.20;5.80;;;;;;;3.76;86.75;100613.70;88175;1276;79526;-58
2022/02/11 07:11:58;;;;;;;10.00;6.10;;;;;;;3.81;86.92;100611.59;88145;1276;98897;-58
2022/02/11 07:14:07;;;;;;;10.00;6.10;;;;;;;3.85;86.76;100614.39;88139;1276;86843;-76
2022/02/11 07:16:15;;;;;;;13.00;6.80;;;;;;;3.85;86.63;100619.46;88122;1276;94549;-77
2022/02/11 07:18:24;;;;;;;10.20;6.20;;;;;;;3.88;86.60;100625.05;88144;1276;79971;-76
2022/02/11 07:20:33;;;;;;;11.60;6.60;;;;;;;3.95;86.63;100623.35;88106;1276;81773;-77
2022/02/11 07:22:39;;;;;;;12.10;7.00;;;;;;;4.01;86.82;100617.75;88115;1276;99475;-76
2022/02/11 07:24:47;;;;;;;10.30;7.80;;;;;;;4.06;86.76;100615.30;88027;1279;89255;-57
2022/02/11 07:26:53;;;;;;;10.90;6.50;;;;;;;4.13;86.50;100617.15;88073;1279;96280;-59
2022/02/11 07:29:02;;;;;;;9.90;6.90;;;;;;;4.18;86.39;100618.98;88128;1276;77183;-75
2022/02/11 07:31:07;;;;;;;13.60;7.90;;;;;;;4.21;86.23;100616.23;88122;1276;81101;-75
2022/02/11 07:33:13;;;;;;;14.90;8.50;;;;;;;4.20;86.04;100623.27;88132;1276;98749;-75
2022/02/11 07:35:23;;;;;;;8.80;6.40;;;;;;;4.20;86.16;100629.85;88082;1278;87635;-75
2022/02/11 07:37:30;;;;;;;13.20;7.10;;;;;;;4.22;86.06;100624.86;88056;1278;95049;-75
2022/02/11 07:39:36;;;;;;;9.70;6.00;;;;;;;4.23;86.15;100626.42;88122;1276;80010;-58
2022/02/11 07:41:42;;;;;;;12.40;7.80;;;;;;;4.21;86.19;100624.78;88108;1276;80607;-58
2022/02/11 07:43:48;;;;;;;9.20;6.90;;;;;;;4.26;86.09;100624.69;88051;1278;97731;-75
2022/02/11 07:45:53;;;;;;;13.70;8.30;;;;;;;4.29;86.32;100627.98;88122;1276;89043;-77
2022/02/11 07:47:59;;;;;;;13.00;7.90;;;;;;;4.33;86.23;100625.77;88133;1276;95536;-76
2022/02/11 07:50:08;;;;;;;12.20;8.40;;;;;;;4.40;86.04;100620.01;88123;1276;79365;-58
2022/02/11 07:52:14;;;;;;;11.90;9.10;;;;;;;4.45;86.14;100619.44;88134;1276;81037;-56
2022/02/11 07:54:20;;;;;;;11.90;8.70;;;;;;;4.49;85.84;100618.16;88121;1276;99130;-57
2022/02/11 07:56:26;;;;;;;12.20;8.80;;;;;;;4.51;85.96;100614.60;88124;1276;88914;-58
2022/02/11 07:58:35;;;;;;;17.00;10.00;;;;;;;4.53;86.00;100611.90;88148;1276;95854;-60
2022/02/11 08:00:45;;;;;;;12.90;9.50;;;;;;;4.56;85.79;100613.05;88108;1276;81671;-67
2022/02/11 08:02:54;;;;;;;14.10;8.50;;;;;;;4.54;85.81;100613.95;88118;1276;80448;-59
2022/02/11 08:04:59;;;;;;;13.00;8.30;;;;;;;4.55;85.89;100616.67;88102;1276;96748;-60
2022/02/11 08:07:08;;;;;;;14.60;8.70;;;;;;;4.60;85.68;100615.56;88104;1276;87446;-59
2022/02/11 08:09:16;;;;;;;16.50;9.70;;;;;;;4.66;85.71;100611.93;88120;1276;94138;-57
2022/02/11 08:11:21;;;;;;;16.40;9.20;;;;;;;4.71;86.04;100614.66;88106;1276;77554;-59
2022/02/11 08:13:33;;;;;;;14.90;10.00;;;;;;;4.79;85.93;100616.23;88138;1276;82150;-58
2022/02/11 08:15:42;;;;;;;14.80;10.30;;;;;;;4.90;85.91;100619.23;88119;1276;99179;-58
2022/02/11 08:17:53;;;;;;;17.20;10.50;;;;;;;5.04;85.88;100617.03;88127;1277;88867;-58
2022/02/11 08:19:59;;;;;;;16.50;10.90;;;;;;;5.16;85.79;100618.98;88141;1277;94858;-58
2022/02/11 08:22:05;;;;;;;16.70;11.40;;;;;;;5.24;85.89;100618.41;88127;1278;76934;-58
2022/02/11 08:24:11;;;;;;;16.50;11.00;;;;;;;5.28;85.81;100614.57;88146;1276;82983;-59
2022/02/11 08:26:20;;;;;;;16.20;10.50;;;;;;;5.37;85.68;100612.48;88116;1276;97228;-59
2022/02/11 08:28:26;;;;;;;15.00;10.90;;;;;;;5.44;85.75;100612.44;88095;1277;86465;-58
2022/02/11 08:30:35;;;;;;;16.20;11.20;;;;;;;5.51;85.62;100618.59;88107;1277;93824;-60
2022/02/11 08:32:44;;;;;;;17.30;12.00;;;;;;;5.66;85.70;100624.58;88136;1277;79457;-58
2022/02/11 08:34:50;;;;;;;15.80;11.80;;;;;;;5.81;85.81;100621.58;88140;1277;82937;-80
2022/02/11 08:36:57;;;;;;;18.70;12.40;;;;;;;5.94;85.69;100622.30;88176;1277;97808;-80
2022/02/11 08:39:06;;;;;;;16.90;12.90;;;;;;;6.08;85.29;100623.16;88246;1276;87898;-58
2022/02/11 08:41:15;;;;;;;18.40;13.30;;;;;;;6.21;85.07;100629.39;88146;1277;95219;-59
2022/02/11 08:43:26;;;;;;;18.50;12.50;;;;;;;6.24;84.81;100627.08;88135;1277;78554;-59
2022/02/11 08:45:37;;;;;;;18.70;12.50;;;;;;;6.24;84.90;100622.81;88114;1277;80912;-73
2022/02/11 08:47:43;;;;;;;18.80;12.60;;;;;;;6.25;84.78;100621.20;88152;1277;98694;-83
2022/02/11 08:49:50;;;;;;;15.00;11.20;;;;;;;6.26;84.53;100620.76;88234;1277;87418;-86
2022/02/11 08:51:57;;;;;;;15.80;11.70;;;;;;;6.28;84.48;100612.39;88113;1277;93979;-80
2022/02/11 08:54:05;;;;;;;14.10;11.10;;;;;;;6.29;84.31;100617.90;88111;1278;79792;-59
2022/02/11 08:56:17;;;;;;;13.80;10.10;;;;;;;6.35;84.09;100613.62;88082;1277;81227;-60
2022/02/11 08:58:41;;;;;;;16.60;10.50;;;;;;;6.41;84.16;100615.27;88075;1276;100400;-59
2022/02/11 09:00:51;;;;;;;14.10;10.40;;;;;;;6.47;83.80;100608.70;88094;1278;87242;-78
2022/02/11 09:02:59;;;;;;;15.90;11.30;;;;;;;6.52;83.80;100610.77;88128;1277;95276;-84
2022/02/11 09:05:16;;;;;;;15.60;10.80;;;;;;;6.56;84.02;100608.42;88157;1277;78074;-82
2022/02/11 09:07:25;;;;;;;17.60;11.90;;;;;;;6.60;83.88;100605.86;88119;1277;80259;-80
2022/02/11 09:09:36;;;;;;;16.00;11.20;;;;;;;6.60;83.75;100608.48;88083;1277;99611;-60
2022/02/11 09:11:48;;;;;;;17.50;11.70;;;;;;;6.59;83.78;100606.42;88119;1277;88953;-59
2022/02/11 09:13:55;;;;;;;16.20;11.10;;;;;;;6.56;83.82;100604.50;88130;1276;95714;-82
2022/02/11 09:16:03;;;;;;;14.80;11.40;;;;;;;6.52;83.84;100603.36;88135;1277;80967;-81
2022/02/11 09:18:16;;;;;;;13.50;9.90;;;;;;;6.50;83.59;100601.30;88127;1277;82055;-79
2022/02/11 09:20:26;;;;;;;;;;;;;;;6.48;83.68;100607.02;88134;1276;97632;-59
2022/02/11 09:22:43;;;;;;;14.60;10.20;;;;;;;6.50;83.71;100608.02;88114;1277;87454;-59
2022/02/11 09:24:54;;;;;;;15.80;9.50;;;;;;;6.51;83.51;100611.75;88115;1277;93912;-59
2022/02/11 09:27:05;;;;;;;15.30;10.60;;;;;;;6.52;83.45;100611.79;88096;1277;80442;-59
2022/02/11 09:29:12;;;;;;;14.90;10.30;;;;;;;6.51;83.33;100614.10;88113;1278;80584;-58
2022/02/11 09:31:27;;;;;;;14.20;10.70;;;;;;;6.58;83.11;100614.77;88130;1276;98478;-58
2022/02/11 09:33:36;;;;;;;13.30;10.30;;;;;;;6.65;82.97;100613.57;88136;1277;89029;-61
2022/02/11 09:35:49;;;;;;;15.80;11.10;;;;;;;6.70;82.87;100618.71;88117;1277;94995;-58
2022/02/11 09:38:01;;;;;;;13.50;10.40;;;;;;;6.72;82.66;100622.44;88131;1278;78218;-59
2022/02/11 09:40:14;;;;;;;15.50;10.80;;;;;;;6.66;82.72;100620.80;88121;1277;83142;-77
2022/02/11 09:42:25;;;;;;;16.10;10.90;;;;;;;6.63;82.62;100623.80;88146;1278;97950;-81
2022/02/11 09:44:32;;;;;;;16.80;10.90;;;;;;;6.55;82.62;100620.48;88117;1277;88729;-82
2022/02/11 09:46:42;;;;;;;15.10;10.60;;;;;;;6.50;82.72;100616.33;88037;1279;93266;-79
2022/02/11 09:48:53;;;;;;;17.00;11.10;;;;;;;6.44;82.82;100618.55;88098;1277;78749;-59
2022/02/11 09:51:03;;;;;;;15.80;9.50;;;;;;;6.39;82.84;100614.25;88087;1277;82375;-60
2022/02/11 09:53:13;;;;;;;17.20;9.20;;;;;;;6.38;82.60;100616.98;88008;1281;99168;-59
2022/02/11 09:55:35;;;;;;;11.00;7.10;;;;;;;6.36;82.64;100612.76;88143;1277;88682;-78
2022/02/11 09:57:46;;;;;;;11.90;7.70;;;;;;;6.41;82.92;100609.57;88141;1276;95180;-79
2022/02/11 09:59:53;;;;;;;13.90;9.40;;;;;;;6.45;83.05;100606.81;88133;1277;78926;-78
2022/02/11 10:02:03;;;;;;;13.40;9.40;;;;;;;6.51;82.88;100609.23;88129;1277;80860;-78
2022/02/11 10:04:17;;;;;;;17.80;11.40;;;;;;;6.56;82.61;100603.92;88130;1277;98377;-60
2022/02/11 10:06:31;;;;;;;17.40;11.10;;;;;;;6.55;82.70;100604.18;88087;1277;88547;-60
2022/02/11 10:08:41;;;;;;;13.80;10.90;;;;;;;6.51;82.71;100605.23;88057;1277;95106;-60
2022/02/11 10:10:49;;;;;;;15.80;11.50;;;;;;;6.38;82.70;100603.41;88123;1276;77751;-59
2022/02/11 10:12:58;;;;;;;18.10;10.40;;;;;;;6.32;82.77;100601.92;88114;1277;82493;-60
2022/02/11 10:15:19;;;;;;;15.40;10.20;;;;;;;6.27;83.12;100606.84;88140;1278;98611;-78
2022/02/11 10:17:25;;;;;;;13.70;9.90;;;;;;;6.21;82.94;100606.14;88151;1276;87994;-78
2022/02/11 10:19:47;;;;;;;14.00;9.50;;;;;;;6.21;82.84;100605.86;88148;1277;93985;-60
2022/02/11 10:22:08;;;;;;;15.80;9.60;;;;;;;6.16;82.87;100602.51;88116;1277;80984;-59
2022/02/11 10:24:29;;;;;;;13.50;10.00;;;;;;;6.16;83.03;100603.95;88167;1277;82817;-59
2022/02/11 10:26:37;;;;;;;13.80;9.50;;;;;;;6.20;83.22;100603.34;88122;1277;97068;-60
2022/02/11 10:28:47;;;;;;;15.60;10.80;;;;;;;6.21;83.30;100603.59;88094;1277;88763;-76
2022/02/11 10:31:10;;;;;;;14.00;9.70;;;;;;;6.22;83.40;100600.81;88125;1277;95612;-75
2022/02/11 10:33:16;;;;;;;13.90;10.50;;;;;;;6.23;83.47;100598.90;88137;1276;80088;-74
2022/02/11 10:35:29;;;;;;;15.40;10.70;;;;;;;6.16;83.38;100598.71;88167;1277;80153;-76
2022/02/11 10:38:06;;;;;;;11.80;9.20;;;;;;;6.12;83.41;100597.71;88130;1276;100007;-74
2022/02/11 10:40:13;;;;;;;13.80;8.40;;;;;;;6.06;83.54;100599.92;88097;1277;88899;-74
2022/02/11 10:42:18;;;;;;;10.70;6.00;;;;;;;6.02;83.36;100599.80;88121;1277;94318;-75
2022/02/11 10:44:26;;;;;;;10.00;5.30;;;;;;;5.96;83.00;100602.81;88096;1276;80595;-60
2022/02/11 10:46:38;;;;;;;8.00;4.80;;;;;;;5.94;83.21;100606.69;88128;1276;80886;-60
2022/02/11 10:48:44;;;;;;;8.40;4.50;;;;;;;5.96;83.11;100607.20;88111;1277;99057;-59
2022/02/11 10:50:55;;;;;;;7.80;4.20;;;;;;;6.00;83.05;100604.48;88126;1277;89256;-60
2022/02/11 10:53:02;;;;;;;9.50;4.50;;;;;;;6.05;83.04;100602.59;88109;1276;94954;-60
2022/02/11 10:55:23;;;;;;;9.10;4.50;;;;;;;6.07;82.90;100605.98;88144;1277;78070;-77
2022/02/11 10:57:31;;;;;;;7.20;4.60;;;;;;;5.98;83.14;100605.39;88157;1276;82061;-76
2022/02/11 10:59:40;;;;;;;9.50;4.70;;;;;;;5.92;83.24;100602.45;88142;1277;99445;-60
2022/02/11 11:01:46;;;;;;;7.30;4.50;;;;;;;5.95;83.11;100599.48;88129;1276;88700;-59
2022/02/11 11:03:52;;;;;;;9.60;4.20;;;;;;;6.01;83.18;100598.66;88140;1277;94568;-77
2022/02/11 11:05:58;;;;;;;9.10;4.00;;;;;;;6.05;83.33;100597.63;88112;1276;80137;-78
2022/02/11 11:08:05;;;;;;;9.30;3.60;;;;;;;6.02;83.37;100598.58;88147;1276;79971;-78
2022/02/11 11:10:13;;;;;;;7.80;4.30;;;;;;;6.07;83.42;100598.28;88133;1276;98155;-77
2022/02/11 11:12:22;;;;;;;13.20;6.70;;;;;;;6.17;82.98;100592.73;88150;1276;88813;-77
2022/02/11 11:14:29;;;;;;;11.50;6.90;;;;;;;6.20;82.97;100596.90;88155;1276;93848;-80
2022/02/11 11:16:37;;;;;;;11.50;6.90;;;;;;;6.23;82.84;100597.14;88121;1276;77940;-79
2022/02/11 11:18:47;;;;;;;11.70;6.50;;;;;;;6.23;83.11;100599.41;88172;1276;80704;-79
2022/02/11 11:20:52;;;;;;;9.50;6.60;;;;;;;6.19;83.26;100593.20;88134;1276;99598;-78
2022/02/11 11:23:16;;;;;;;9.70;5.30;;;;;;;6.19;83.17;100594.75;88147;1276;89155;-79
2022/02/11 11:25:21;;;;;;;7.90;4.70;;;;;;;6.19;83.08;100599.31;88119;1277;95349;-59
2022/02/11 11:27:45;;;;;;;8.30;4.90;;;;;;;6.20;82.90;100596.36;88066;1277;80619;-58
2022/02/11 11:29:51;;;;;;;8.40;4.50;;;;;;;6.20;82.90;100590.66;88117;1277;82658;-58
2022/02/11 11:32:00;;;;;;;7.70;4.00;;;;;;;6.25;82.56;100591.58;88097;1276;100607;-59
2022/02/11 11:34:30;;;;;;;5.70;4.00;;;;;;;6.24;82.39;100587.92;88140;1276;89378;-59
2022/02/11 11:36:41;;;;;;;7.30;3.40;;;;;;;6.21;82.14;100586.27;87631;1276;641817;-58
2022/02/11 11:38:58;;;;;;;8.00;3.40;;;;;;;6.13;82.27;100590.83;88098;1276;80648;-76
2022/02/11 11:41:12;;;;;;;5.40;3.00;;;;;;;6.05;82.12;100587.23;88142;1276;83381;-76
2022/02/11 11:43:32;;;;;;;6.50;2.70;;;;;;;5.89;82.17;100582.77;88117;1276;99592;-76
2022/02/11 11:45:39;;;;;;;6.40;2.90;;;;;;;5.85;82.15;100579.23;88149;1276;88840;-80
2022/02/11 11:47:45;;;;;;;10.20;4.00;;;;;;;5.81;81.88;100576.58;88069;1277;94154;-75
2022/02/11 11:49:52;;;;;;;7.20;4.20;;;;;;;5.80;81.87;100581.63;88114;1276;78780;-76
2022/02/11 11:52:10;;;;;;;9.40;4.60;;;;;;;5.75;81.58;100580.19;88126;1277;81313;-75
2022/02/11 11:54:26;;;;;;;6.50;4.10;;;;;;;5.67;81.53;100576.19;88105;1276;97914;-59
2022/02/11 11:56:38;;;;;;;6.50;3.70;;;;;;;5.58;81.55;100579.61;88126;1276;86795;-59
2022/02/11 11:58:48;;;;;;;7.30;3.80;;;;;;;5.57;81.66;100580.06;88088;1276;95184;-59
2022/02/11 12:01:04;;;;;;;8.00;4.00;;;;;;;5.55;82.01;100583.90;88098;1276;81568;-60
2022/02/11 12:03:11;;;;;;;8.70;4.80;;;;;;;5.57;82.26;100582.95;88154;1276;82548;-58
2022/02/11 12:05:53;;;;;;;6.00;4.20;;;;;;;5.57;82.49;100579.52;88117;1277;98063;-60
2022/02/11 12:08:01;;;;;;;7.30;4.60;;;;;;;5.55;82.51;100583.71;88127;1276;89487;-61
2022/02/11 12:10:09;;;;;;;9.10;5.20;;;;;;;5.50;82.60;100586.54;88126;1276;93321;-71
2022/02/11 12:12:18;;;;;;;6.80;4.70;;;;;;;5.40;82.39;100588.34;88161;1276;77971;-71
2022/02/11 12:14:27;;;;;;;7.40;4.70;;;;;;;5.36;82.38;100588.00;88094;1278;84474;-76
2022/02/11 12:17:14;;;;;;;7.60;4.70;;;;;;;5.29;82.56;100587.14;88103;1276;99910;-74
2022/02/11 12:19:40;;;;;;;5.40;4.00;;;;;;;5.20;82.42;100582.91;88062;1278;87708;-58
2022/02/11 12:22:07;;;;;;;8.00;5.00;;;;;;;5.21;82.39;100578.30;88092;1277;94720;-69
2022/02/11 12:27:30;;;;;;;5.30;3.60;;;;;;;5.25;82.74;100581.15;88096;1277;80629;-75
2022/02/11 12:30:22;;;;;;;6.40;4.40;;;;;;;5.24;83.08;100580.30;88092;1276;98258;-61
2022/02/11 12:32:59;;;;;;;5.80;4.10;;;;;;;5.24;83.24;100581.27;88141;1276;87437;-75
2022/02/11 12:35:28;;;;;;;8.50;4.80;;;;;;;5.30;83.20;100577.95;88082;1278;93993;-60
2022/02/11 12:40:36;;;;;;;6.70;4.60;;;;;;;5.32;82.94;100576.66;88177;1276;81820;-61
2022/02/11 12:43:01;;;;;;;6.40;5.00;;;;;;;5.29;82.96;100580.53;88095;1276;98377;-61
2022/02/11 12:45:37;;;;;;;7.90;4.90;;;;;;;5.24;82.90;100577.69;88017;1278;89878;-72
2022/02/11 12:48:12;;;;;;;7.70;4.80;;;;;;;5.15;83.18;100578.17;88037;1277;94516;-73
2022/02/11 12:50:40;;;;;;;7.70;4.80;;;;;;;5.11;83.05;100580.16;88087;1276;80840;-60
2022/02/11 12:53:08;;;;;;;7.00;4.70;;;;;;;5.07;83.35;100578.41;88169;1276;80080;-61
2022/02/11 12:55:25;;;;;;;8.40;5.80;;;;;;;5.10;82.93;100582.02;88084;1278;99749;-74
2022/02/11 12:57:46;;;;;;;7.70;5.20;;;;;;;5.10;83.33;100585.09;88120;1276;87028;-75
2022/02/11 13:00:06;;;;;;;9.20;5.10;;;;;;;5.03;83.19;100589.91;88077;1276;94785;-61
2022/02/11 13:02:37;;;;;;;8.10;5.10;;;;;;;4.98;83.36;100593.05;88090;1276;78315;-61
2022/02/11 13:05:24;;;;;;;8.10;5.30;;;;;;;4.97;83.38;100588.73;88181;1276;81981;-60
2022/02/11 13:08:15;;;;;;;8.20;5.40;;;;;;;4.98;83.73;100585.42;88178;1276;96925;-60
2022/02/11 13:10:46;;;;;;;5.30;3.70;;;;;;;5.00;83.67;100589.36;88098;1277;86969;-58
2022/02/11 13:13:39;;;;;;;5.10;3.10;;;;;;;5.01;83.50;100587.44;88091;1278;96823;-77
2022/02/11 13:16:21;;;;;;;4.10;2.60;;;;;;;4.97;83.53;100593.41;88014;1278;81109;-62
2022/02/11 13:18:42;;;;;;;4.40;2.70;;;;;;;5.01;83.55;100594.94;88162;1276;82026;-60
2022/02/11 13:21:09;;;;;;;4.20;3.10;;;;;;;5.03;83.36;100596.57;88071;1276;100439;-74
2022/02/11 13:23:49;;;;;;;5.70;3.90;;;;;;;5.03;83.20;100595.96;88111;1276;87951;-75
2022/02/11 13:26:31;;;;;;;7.30;4.70;;;;;;;4.97;83.68;100599.08;88048;1277;96546;-59